메인 페이지
METAR-TAF:

METAR-TAF

공항 :

칭다오, 중국

칭다오 류팅 국제공항

위도: 36-04N, 경도: 120-20E, 고도: 77m

현재 날씨관측

예보는 46분 전, 12:00시(UTC)에 발표되었습니다.
무풍
온도 -1°C
습도 69%
기압 1032 hPa
시정 10km 이상
1500m 미만 상공 구름 및 적란운 없음

METAR: ZSQD 161200Z 00000MPS CAVOK M01/M06 Q1032 NOSIG

시각: 20:46 (12:46 UTC)

예보

예보는 3 시간 56분 전, 08:50시(UTC)에 발표되었습니다.
예보 대상 시간: 16일 12시부터 17일 12시까지 (UTC)
6kt
시정: 5000m
박무

TAF: ZSQD 160850Z 1612/1712 36003MPS 5000 BR NSC TX05/1706Z TNM04/21Z

4,000개 이상의 공항 관측 자료 및 예보 (METAR 및 TAF 보고).

지도상에서 검색 가능한 기상관측소가 노란 점과 빨간 점으로 표시되어 있습니다.

기상관측소 명을 보려면 표시 위로 마우스를 이동하세요.

날씨 관측과 예보를 보려면 클릭하세요.

지도 변경 : 확대하려면 엑스 표시가 있는 녹색 버튼, 축소하려면 빼기 표시가 있는 녹색 버튼, 다음 페이지의 지도를 보려면 녹색 화살표를 클릭하세요.


METAR-TAF: